Time;durP1;ratioP1;P1;durP2;ratioP2;P2;SDS_P1;SDS_P2;PMS_P1;PMS_P2;Temp;Humidity;BMP_temperature;BMP_pressure;BME280_temperature;BME280_humidity;BME280_pressure;Samples;Min_cycle;Max_cycle;Signal;HPM_P1;HPM_P2
2021/01/17 00:00:59;;;;;;;37.87;18.37;;;38.60;2201.60;;;;;;5003937;28;20062;-76
2021/01/17 00:03:26;;;;;;;35.90;19.83;;;38.60;2201.60;;;;;;5001657;28;20041;-76
2021/01/17 00:05:57;;;;;;;32.47;17.63;;;38.50;2201.60;;;;;;4988951;28;20045;-78
2021/01/17 00:08:27;;;;;;;35.15;18.67;;;38.60;2201.60;;;;;;5006646;28;20054;-77
2021/01/17 00:10:53;;;;;;;34.13;17.83;;;13.50;2201.60;;;;;;5001153;28;20034;-77
2021/01/17 00:13:24;;;;;;;34.17;19.63;;;38.60;2201.60;;;;;;5000616;28;20399;-76
2021/01/17 00:15:50;;;;;;;30.17;17.50;;;38.60;2201.60;;;;;;5016851;28;20045;-76
2021/01/17 00:18:17;;;;;;;31.00;17.80;;;38.60;2201.60;;;;;;5002244;28;20019;-76
2021/01/17 00:20:48;;;;;;;32.37;17.30;;;38.60;2201.60;;;;;;5011225;28;20037;-76
2021/01/17 00:23:18;;;;;;;30.73;18.60;;;38.60;2201.60;;;;;;4989903;28;20593;-77
2021/01/17 00:25:51;;;;;;;31.53;18.23;;;38.60;2201.60;;;;;;4989027;28;20050;-78
2021/01/17 00:28:17;;;;;;;33.33;18.27;;;38.60;2201.60;;;;;;5006556;28;20048;-77
2021/01/17 00:30:43;;;;;;;33.77;18.40;;;38.60;2201.60;;;;;;5006280;28;20364;-77
2021/01/17 00:33:10;;;;;;;32.03;19.13;;;38.60;2201.60;;;;;;5005749;28;20027;-76
2021/01/17 00:35:37;;;;;;;30.20;18.00;;;38.60;2201.60;;;;;;5005645;28;20026;-76
2021/01/17 00:38:07;;;;;;;30.23;17.73;;;38.60;2201.60;;;;;;5006530;28;20023;-77
2021/01/17 00:40:33;;;;;;;30.67;17.73;;;38.60;2201.60;;;;;;5009980;28;20029;-76
2021/01/17 00:43:08;;;;;;;30.17;17.07;;;38.60;2201.60;;;;;;5009573;28;20089;-77
2021/01/17 00:45:35;;;;;;;34.13;18.87;;;38.60;2201.60;;;;;;5017915;28;20026;-76
2021/01/17 00:48:02;;;;;;;39.93;20.27;;;38.60;2201.60;;;;;;5021028;28;20050;-77
2021/01/17 00:50:29;;;;;;;35.33;19.03;;;38.60;2201.60;;;;;;5024270;28;20033;-79
2021/01/17 00:53:00;;;;;;;35.97;19.77;;;38.60;2201.60;;;;;;5018371;28;20048;-77
2021/01/17 00:55:28;;;;;;;;;;;38.50;2201.60;;;;;;5016670;28;20040;-78
2021/01/17 00:57:57;;;;;;;32.57;17.47;;;38.60;2201.60;;;;;;5026653;28;19940;-79
2021/01/17 01:00:32;;;;;;;38.27;21.63;;;38.60;2201.60;;;;;;5024436;28;20048;-82
2021/01/17 01:02:58;;;;;;;36.00;20.10;;;38.60;2201.60;;;;;;5022473;28;20030;-79
2021/01/17 01:05:44;;;;;;;33.37;19.97;;;38.60;2201.60;;;;;;5012063;28;20124;-80
2021/01/17 01:08:14;;;;;;;32.40;18.10;;;38.60;2201.60;;;;;;4996314;28;20502;-77
2021/01/17 01:10:46;;;;;;;31.63;18.33;;;38.60;2201.60;;;;;;5049649;28;20482;-79
2021/01/17 01:13:12;;;;;;;32.10;17.97;;;38.60;2201.60;;;;;;5019889;28;20168;-78
2021/01/17 01:15:38;;;;;;;28.87;17.13;;;38.60;2201.60;;;;;;5020713;28;20498;-78
2021/01/17 01:18:06;;;;;;;29.93;18.03;;;38.60;2201.60;;;;;;5018716;28;20129;-78
2021/01/17 01:20:32;;;;;;;30.50;17.77;;;38.60;2201.60;;;;;;5019063;28;20148;-78
2021/01/17 01:22:58;;;;;;;27.97;16.73;;;38.60;2201.60;;;;;;5018159;28;20041;-78
2021/01/17 01:25:25;;;;;;;27.23;17.57;;;38.60;2201.60;;;;;;5018149;28;20034;-78
2021/01/17 01:27:51;;;;;;;28.13;17.17;;;38.60;2201.60;;;;;;5019283;28;20057;-78
2021/01/17 01:30:18;;;;;;;25.60;16.67;;;38.60;2201.60;;;;;;5022937;28;20049;-79
2021/01/17 01:32:49;;;;;;;26.47;15.43;;;38.60;2201.60;;;;;;5022056;28;20443;-79
2021/01/17 01:35:16;;;;;;;30.30;17.83;;;13.60;2201.60;;;;;;5022533;28;20479;-78
2021/01/17 01:37:41;;;;;;;31.63;18.90;;;38.50;2201.60;;;;;;5004001;28;20447;-78
2021/01/17 01:40:07;;;;;;;31.23;17.90;;;38.50;2201.60;;;;;;5019283;28;20029;-78
2021/01/17 01:42:33;;;;;;;29.50;18.87;;;38.50;2201.60;;;;;;5019197;28;20591;-77
2021/01/17 01:45:00;;;;;;;27.57;16.80;;;38.50;2201.60;;;;;;5018908;28;20033;-79
2021/01/17 01:47:29;;;;;;;30.43;17.77;;;38.50;2201.60;;;;;;5019296;28;20075;-78
2021/01/17 01:49:56;;;;;;;32.50;19.53;;;38.50;2201.60;;;;;;5019245;28;20038;-78
2021/01/17 01:52:22;;;;;;;31.57;18.63;;;38.50;2201.60;;;;;;5018924;28;20076;-79
2021/01/17 01:54:48;;;;;;;28.70;17.13;;;38.50;2201.60;;;;;;5019980;28;20080;-78
2021/01/17 01:57:15;;;;;;;29.23;16.70;;;38.60;2201.60;;;;;;5019275;28;20029;-78
2021/01/17 01:59:42;;;;;;;27.67;17.10;;;38.60;2201.60;;;;;;5002220;28;20026;-78
2021/01/17 02:02:09;;;;;;;29.30;17.37;;;38.60;2201.60;;;;;;5018504;28;20033;-78
2021/01/17 02:04:38;;;;;;;33.73;19.43;;;38.60;2201.60;;;;;;5017956;28;20025;-78
2021/01/17 02:07:25;;;;;;;30.70;18.43;;;38.60;2201.60;;;;;;5019064;28;20036;-78
2021/01/17 02:09:50;;;;;;;30.87;18.73;;;38.60;2201.60;;;;;;5018773;28;20038;-78
2021/01/17 02:12:38;;;;;;;28.43;17.73;;;38.60;2201.60;;;;;;5019372;28;20064;-78
2021/01/17 02:15:17;;;;;;;30.17;17.07;;;38.70;2201.60;;;;;;5017721;28;20120;-78
2021/01/17 02:17:47;;;;;;;30.93;18.37;;;38.70;2201.60;;;;;;5021234;28;20540;-78
2021/01/17 02:20:21;;;;;;;29.47;17.13;;;38.80;2201.60;;;;;;5024374;28;20030;-77
2021/01/17 02:22:50;;;;;;;31.13;17.83;;;38.80;2201.60;;;;;;5015149;28;20430;-76
2021/01/17 02:25:18;;;;;;;29.40;18.20;;;38.80;2201.60;;;;;;5012292;28;20394;-75
2021/01/17 02:27:46;;;;;;;33.00;18.23;;;38.80;2201.60;;;;;;5011190;28;20107;-76
2021/01/17 02:30:14;;;;;;;36.13;19.10;;;38.80;2201.60;;;;;;5010912;28;20117;-75
2021/01/17 02:32:47;;;;;;;30.40;19.57;;;38.80;2201.60;;;;;;5010912;28;20473;-76
2021/01/17 02:35:14;;;;;;;30.83;18.43;;;38.80;2201.60;;;;;;5014628;28;20093;-76
2021/01/17 02:37:46;;;;;;;30.40;18.03;;;38.80;2201.60;;;;;;5013287;28;20287;-75
2021/01/17 02:40:27;;;;;;;31.67;18.13;;;38.80;2201.60;;;;;;5014942;28;20053;-76
2021/01/17 02:42:55;;;;;;;31.27;18.30;;;38.80;2201.60;;;;;;5014215;28;20099;-76
2021/01/17 02:45:21;;;;;;;29.73;18.20;;;38.80;2201.60;;;;;;5013425;28;20024;-75
2021/01/17 02:47:47;;;;;;;31.87;18.47;;;39.20;2201.60;;;;;;5013257;28;20021;-75
2021/01/17 02:50:13;;;;;;;30.33;17.67;;;38.80;2201.60;;;;;;5014099;28;20025;-76
2021/01/17 02:52:45;;;;;;;27.67;16.67;;;38.80;2201.60;;;;;;5021867;28;20093;-77
2021/01/17 02:55:11;;;;;;;28.17;16.50;;;38.90;2201.60;;;;;;5024064;28;20049;-76
2021/01/17 02:57:40;;;;;;;28.97;17.00;;;38.80;2201.60;;;;;;5025785;28;20029;-76
2021/01/17 03:00:10;;;;;;;24.80;15.20;;;38.80;2201.60;;;;;;5026199;28;20030;-80
2021/01/17 03:02:42;;;;;;;26.43;15.60;;;38.80;2201.60;;;;;;5023635;28;20022;-75
2021/01/17 03:05:30;;;;;;;22.83;14.07;;;38.80;2201.60;;;;;;5025347;28;20474;-76
2021/01/17 03:07:57;;;;;;;24.03;14.63;;;38.80;2201.60;;;;;;5017196;28;20034;-76
2021/01/17 03:10:24;;;;;;;25.77;16.63;;;38.90;2201.60;;;;;;5025215;28;20104;-76
2021/01/17 03:12:52;;;;;;;31.63;15.57;;;39.00;2201.60;;;;;;5023720;28;20018;-75
2021/01/17 03:15:19;;;;;;;34.13;17.80;;;38.90;2201.60;;;;;;5026537;28;20074;-77
2021/01/17 03:17:46;;;;;;;29.57;17.70;;;38.90;2201.60;;;;;;5023859;28;20033;-75
2021/01/17 03:20:22;;;;;;;26.00;15.93;;;38.90;2201.60;;;;;;5024364;28;20040;-76
2021/01/17 03:22:48;;;;;;;32.00;17.67;;;38.90;2201.60;;;;;;5024617;28;20010;-75
2021/01/17 03:25:14;;;;;;;31.23;18.03;;;38.80;2201.60;;;;;;5021073;28;20071;-75
2021/01/17 03:27:40;;;;;;;25.50;16.23;;;38.80;2201.60;;;;;;5016742;28;20029;-75
2021/01/17 03:30:06;;;;;;;29.30;17.23;;;38.80;2201.60;;;;;;5017770;28;20038;-75
2021/01/17 03:32:32;;;;;;;29.87;18.00;;;38.90;2201.60;;;;;;5019577;28;20134;-76
2021/01/17 03:34:58;;;;;;;32.40;18.50;;;38.80;2201.60;;;;;;5017048;28;20113;-76
2021/01/17 03:37:24;;;;;;;31.67;19.03;;;38.90;2201.60;;;;;;5018844;28;20389;-75
2021/01/17 03:39:50;;;;;;;30.77;18.03;;;38.90;2201.60;;;;;;5019983;28;20464;-75
2021/01/17 03:42:17;;;;;;;32.23;19.53;;;38.90;2201.60;;;;;;5018790;28;20014;-76
2021/01/17 03:44:43;;;;;;;35.77;19.47;;;38.90;2201.60;;;;;;5017846;28;20104;-75
2021/01/17 03:47:09;;;;;;;29.23;18.23;;;38.90;2201.60;;;;;;5018706;28;20454;-75
2021/01/17 03:49:35;;;;;;;32.03;18.73;;;38.80;2201.60;;;;;;5017773;28;20038;-75
2021/01/17 03:52:01;;;;;;;30.87;17.67;;;38.80;2201.60;;;;;;5017171;28;20091;-75
2021/01/17 03:54:27;;;;;;;33.57;18.73;;;38.80;2201.60;;;;;;5016231;28;20034;-75
2021/01/17 03:56:56;;;;;;;30.73;18.67;;;38.80;2201.60;;;;;;5015904;28;20032;-75
2021/01/17 03:59:22;;;;;;;27.10;17.37;;;38.80;2201.60;;;;;;5018678;28;20391;-75
2021/01/17 04:01:48;;;;;;;25.80;15.53;;;38.80;2201.60;;;;;;5022960;28;20022;-75
2021/01/17 04:04:15;;;;;;;27.63;16.83;;;38.80;2201.60;;;;;;5019881;28;20030;-77
2021/01/17 04:06:41;;;;;;;29.83;16.10;;;39.30;2201.60;;;;;;5021422;28;20026;-75
2021/01/17 04:09:07;;;;;;;32.30;18.13;;;38.90;2201.60;;;;;;5025999;28;20022;-75
2021/01/17 04:11:33;;;;;;;31.30;17.60;;;38.90;2201.60;;;;;;5025029;28;20483;-76
2021/01/17 04:13:59;;;;;;;28.00;17.13;;;38.90;2201.60;;;;;;5021046;28;20030;-77
2021/01/17 04:16:25;;;;;;;28.60;17.67;;;38.90;2201.60;;;;;;5018349;28;20490;-75
2021/01/17 04:18:51;;;;;;;26.17;16.63;;;38.90;2201.60;;;;;;5022537;28;20037;-76
2021/01/17 04:21:17;;;;;;;32.50;18.53;;;39.00;2201.60;;;;;;5028010;28;20021;-76
2021/01/17 04:23:44;;;;;;;27.50;17.10;;;39.00;2201.60;;;;;;5025903;28;20493;-76
2021/01/17 04:26:10;;;;;;;26.57;16.30;;;39.00;2201.60;;;;;;5023845;28;20044;-75
2021/01/17 04:28:43;;;;;;;25.03;14.53;;;39.10;2201.60;;;;;;5023819;28;20036;-76
2021/01/17 04:31:09;;;;;;;26.30;15.35;;;39.10;2201.60;;;;;;5024153;28;20068;-75
2021/01/17 04:33:35;;;;;;;26.93;15.00;;;39.10;2201.60;;;;;;5021945;28;20030;-75
2021/01/17 04:36:06;;;;;;;28.03;17.30;;;39.10;2201.60;;;;;;5026842;28;20037;-78
2021/01/17 04:38:32;;;;;;;35.60;18.13;;;39.10;2201.60;;;;;;5024035;28;20116;-76
2021/01/17 04:41:04;;;;;;;38.60;19.50;;;39.10;2201.60;;;;;;5026375;28;20084;-75
2021/01/17 04:43:40;;;;;;;48.50;22.40;;;39.10;2201.60;;;;;;5020631;28;20032;-79
2021/01/17 04:46:09;;;;;;;57.03;24.77;;;39.00;2201.60;;;;;;5024208;28;20069;-79
2021/01/17 04:48:36;;;;;;;50.23;23.50;;;39.00;2201.60;;;;;;5021083;28;20037;-75
2021/01/17 04:51:04;;;;;;;49.80;24.17;;;39.00;2201.60;;;;;;5024426;28;20029;-77
2021/01/17 04:53:34;;;;;;;45.43;23.80;;;38.90;2201.60;;;;;;5023012;28;20502;-75
2021/01/17 04:56:24;;;;;;;36.37;20.50;;;38.90;2201.60;;;;;;5024705;28;20100;-79
2021/01/17 04:59:15;;;;;;;35.13;19.27;;;38.90;2201.60;;;;;;5020937;28;20040;-75
2021/01/17 05:02:02;;;;;;;34.70;18.93;;;38.90;2201.60;;;;;;5014647;28;20034;-75
2021/01/17 05:04:37;;;;;;;28.60;16.93;;;38.90;2201.60;;;;;;5015576;28;20108;-75
2021/01/17 05:07:30;;;;;;;31.00;18.43;;;38.90;2201.60;;;;;;5015038;28;20030;-75
2021/01/17 05:10:12;;;;;;;30.37;16.97;;;38.90;2201.60;;;;;;5007519;28;20046;-75
2021/01/17 05:12:51;;;;;;;34.63;17.90;;;38.90;2201.60;;;;;;5014128;28;20072;-75
2021/01/17 05:15:23;;;;;;;29.00;16.70;;;38.90;2201.60;;;;;;5014190;28;20364;-75
2021/01/17 05:17:54;;;;;;;62.80;28.00;;;38.90;2201.60;;;;;;5015977;28;20074;-75
2021/01/17 05:20:22;;;;;;;34.67;17.75;;;38.90;2201.60;;;;;;5021869;28;20026;-75
2021/01/17 05:22:52;;;;;;;34.90;19.13;;;38.90;2201.60;;;;;;5022885;28;20505;-75
2021/01/17 05:25:20;;;;;;;46.23;21.33;;;38.90;2201.60;;;;;;5021023;28;20486;-75
2021/01/17 05:27:49;;;;;;;29.10;15.63;;;38.90;2201.60;;;;;;5021589;28;20017;-75
2021/01/17 05:30:15;;;;;;;26.67;15.47;;;38.90;2201.60;;;;;;5002811;28;20038;-76
2021/01/17 05:32:43;;;;;;;27.70;15.87;;;38.90;2201.60;;;;;;5020061;28;20036;-76
2021/01/17 05:35:09;;;;;;;30.23;16.23;;;38.90;2201.60;;;;;;5006220;28;20023;-76
2021/01/17 05:37:47;;;;;;;31.47;17.27;;;38.90;2201.60;;;;;;5000159;28;20475;-75
2021/01/17 05:40:13;;;;;;;27.17;16.80;;;38.90;2201.60;;;;;;4999716;28;20014;-76
2021/01/17 05:42:41;;;;;;;30.60;18.10;;;38.90;2201.60;;;;;;5000218;28;20053;-76
2021/01/17 05:45:10;;;;;;;44.07;22.67;;;38.90;2201.60;;;;;;4997599;28;20030;-76
2021/01/17 05:47:36;;;;;;;31.30;18.17;;;38.90;2201.60;;;;;;5000886;28;20105;-76
2021/01/17 05:50:10;;;;;;;38.90;20.83;;;38.90;2201.60;;;;;;4999358;28;20070;-76
2021/01/17 05:52:37;;;;;;;53.80;26.17;;;38.90;2201.60;;;;;;5001416;28;20050;-76
2021/01/17 05:55:03;;;;;;;58.60;26.90;;;38.90;2201.60;;;;;;4994652;28;20022;-75
2021/01/17 05:57:31;;;;;;;36.53;19.60;;;38.90;2201.60;;;;;;4994359;28;20027;-75
2021/01/17 06:00:03;;;;;;;38.93;20.83;;;38.90;2201.60;;;;;;4993887;28;20034;-76
2021/01/17 06:02:29;;;;;;;25.37;15.43;;;38.90;2201.60;;;;;;4996109;28;20468;-77
2021/01/17 06:04:56;;;;;;;36.17;18.77;;;38.90;2201.60;;;;;;5002909;28;20027;-77
2021/01/17 06:07:24;;;;;;;27.90;16.43;;;38.90;2201.60;;;;;;4997864;28;20371;-76
2021/01/17 06:10:22;;;;;;;32.73;18.13;;;38.90;2201.60;;;;;;4996295;28;20049;-80
2021/01/17 06:12:50;;;;;;;30.53;17.27;;;38.90;2201.60;;;;;;4996747;28;20038;-75
2021/01/17 06:15:16;;;;;;;27.10;16.07;;;38.90;2201.60;;;;;;4995489;28;20033;-75
2021/01/17 06:17:47;;;;;;;29.67;17.77;;;38.80;2201.60;;;;;;4995812;28;20030;-75
2021/01/17 06:20:26;;;;;;;32.80;18.40;;;38.90;2201.60;;;;;;4996811;28;20084;-76
2021/01/17 06:23:00;;;;;;;32.07;19.10;;;38.90;2201.60;;;;;;5004567;28;20053;-78
2021/01/17 06:25:30;;;;;;;27.98;16.48;;;38.80;2201.60;;;;;;5000565;28;20018;-75
2021/01/17 06:28:05;;;;;;;32.40;18.23;;;38.90;2201.60;;;;;;4997124;28;20030;-75
2021/01/17 06:30:33;;;;;;;33.60;19.83;;;38.90;2201.60;;;;;;4995689;28;20030;-75
2021/01/17 06:32:59;;;;;;;32.93;18.70;;;38.80;2201.60;;;;;;4996640;28;20064;-80
2021/01/17 06:35:34;;;;;;;32.97;17.93;;;38.80;2201.60;;;;;;4998214;28;20009;-76
2021/01/17 06:38:20;;;;;;;33.50;17.67;;;38.80;2201.60;;;;;;4997873;28;20018;-83
2021/01/17 06:40:48;;;;;;;33.50;18.00;;;38.80;2201.60;;;;;;4995695;28;20030;-75
2021/01/17 06:43:15;;;;;;;33.40;18.63;;;38.70;2201.60;;;;;;4997516;28;20101;-76
2021/01/17 06:45:43;;;;;;;36.53;18.63;;;38.80;2201.60;;;;;;4995906;28;20124;-75
2021/01/17 06:48:24;;;;;;;35.93;19.30;;;38.90;2201.60;;;;;;4996893;28;20382;-76
2021/01/17 06:50:51;;;;;;;39.27;20.73;;;38.90;2201.60;;;;;;4999523;28;20046;-75
2021/01/17 06:53:24;;;;;;;33.20;18.00;;;38.90;2201.60;;;;;;5003733;28;20061;-76
2021/01/17 06:56:19;;;;;;;32.17;17.98;;;38.80;2201.60;;;;;;5001313;28;20109;-76
2021/01/17 06:58:47;;;;;;;31.27;17.30;;;38.80;2201.60;;;;;;4994057;28;20038;-82
2021/01/17 07:01:14;;;;;;;25.27;15.00;;;38.80;2201.60;;;;;;4994666;28;20058;-75
2021/01/17 07:03:50;;;;;;;30.20;17.03;;;38.90;2201.60;;;;;;4999042;28;20013;-76
2021/01/17 07:06:34;;;;;;;36.37;20.30;;;38.90;2201.60;;;;;;5000183;28;20022;-75
2021/01/17 07:09:05;;;;;;;38.17;18.20;;;38.90;2201.60;;;;;;4999281;28;20105;-78
2021/01/17 07:11:54;;;;;;;55.53;26.90;;;38.90;2201.60;;;;;;4997487;28;20026;-75
2021/01/17 07:14:29;;;;;;;42.80;23.90;;;38.90;2201.60;;;;;;4992945;28;20100;-76
2021/01/17 07:16:58;;;;;;;42.73;21.90;;;38.80;2201.60;;;;;;4993079;28;20452;-75
2021/01/17 07:19:33;;;;;;;37.97;22.03;;;38.80;2201.60;;;;;;4995478;28;20041;-76
2021/01/17 07:22:06;;;;;;;32.80;19.33;;;38.80;2201.60;;;;;;4994190;28;20053;-75
2021/01/17 07:24:33;;;;;;;32.83;18.97;;;38.80;2201.60;;;;;;4995418;28;20030;-75
2021/01/17 07:27:15;;;;;;;30.97;17.67;;;38.80;2201.60;;;;;;4998532;28;20034;-83
2021/01/17 07:29:43;;;;;;;35.50;19.53;;;38.80;2201.60;;;;;;5001264;28;20114;-75
2021/01/17 07:32:35;;;;;;;37.60;20.53;;;38.80;2201.60;;;;;;4993997;28;20022;-76
2021/01/17 07:35:10;;;;;;;37.73;19.53;;;38.70;2201.60;;;;;;4986234;28;20035;-76
2021/01/17 07:37:41;;;;;;;45.40;22.87;;;38.70;2201.60;;;;;;4995890;28;20478;-76
2021/01/17 07:40:08;;;;;;;41.77;22.63;;;38.70;2201.60;;;;;;4996089;28;20113;-76
2021/01/17 07:42:37;;;;;;;45.93;25.00;;;38.70;2201.60;;;;;;4997910;28;20022;-76
2021/01/17 07:45:18;;;;;;;51.27;26.50;;;38.60;2201.60;;;;;;4996152;28;20550;-76
2021/01/17 07:47:45;;;;;;;53.30;26.40;;;38.60;2201.60;;;;;;4995381;28;20120;-76
2021/01/17 07:50:12;;;;;;;48.37;25.30;;;38.50;2201.60;;;;;;4997119;28;20431;-76
2021/01/17 07:52:48;;;;;;;58.17;28.17;;;38.50;2201.60;;;;;;4996998;28;20077;-76
2021/01/17 07:55:19;;;;;;;53.90;27.77;;;38.40;2201.60;;;;;;4995264;28;20588;-76
2021/01/17 07:57:48;;;;;;;85.90;42.83;;;38.40;2201.60;;;;;;4996807;28;20077;-76
2021/01/17 08:00:14;;;;;;;44.13;23.27;;;38.40;2201.60;;;;;;4996403;28;20022;-76
2021/01/17 08:02:47;;;;;;;54.60;29.53;;;38.40;2201.60;;;;;;4995031;28;20049;-77
2021/01/17 08:05:13;;;;;;;45.57;24.63;;;13.70;2201.60;;;;;;4995422;28;20026;-77
2021/01/17 08:07:39;;;;;;;54.60;26.87;;;13.70;2201.60;;;;;;4996963;28;20270;-77
2021/01/17 08:10:06;;;;;;;47.50;24.00;;;13.70;2201.60;;;;;;4997121;28;20038;-76
2021/01/17 08:12:40;;;;;;;74.63;35.60;;;13.70;2201.60;;;;;;4995708;28;20037;-77
2021/01/17 08:15:28;;;;;;;86.07;38.83;;;38.40;2201.60;;;;;;4997060;28;20106;-76
2021/01/17 08:17:54;;;;;;;124.73;48.83;;;38.40;2201.60;;;;;;4996635;28;20065;-76
2021/01/17 08:20:28;;;;;;;119.90;51.17;;;38.40;2201.60;;;;;;4994798;28;20026;-76
2021/01/17 08:23:04;;;;;;;74.30;37.97;;;13.70;2201.60;;;;;;4995117;28;20113;-76
2021/01/17 08:25:54;;;;;;;62.97;31.90;;;38.40;2201.60;;;;;;4996121;28;20491;-76
2021/01/17 08:28:31;;;;;;;85.63;35.07;;;38.40;2201.60;;;;;;4995943;28;20038;-76
2021/01/17 08:30:57;;;;;;;55.67;28.57;;;38.40;2201.60;;;;;;4994780;28;20049;-75
2021/01/17 08:33:26;;;;;;;65.53;33.00;;;38.40;2201.60;;;;;;4996031;28;20030;-75
2021/01/17 08:35:52;;;;;;;47.63;26.23;;;13.70;2201.60;;;;;;4995924;28;20026;-76
2021/01/17 08:38:20;;;;;;;62.13;32.13;;;13.70;2201.60;;;;;;4996295;28;20030;-77
2021/01/17 08:40:51;;;;;;;56.80;30.67;;;13.70;2201.60;;;;;;4994757;28;20511;-76
2021/01/17 08:43:18;;;;;;;49.33;25.00;;;13.70;2201.60;;;;;;4995954;28;20034;-77
2021/01/17 08:45:48;;;;;;;46.67;25.83;;;13.70;2201.60;;;;;;4996623;28;20483;-76
2021/01/17 08:48:17;;;;;;;53.10;28.47;;;13.40;2201.60;;;;;;4994959;28;20065;-77
2021/01/17 08:50:45;;;;;;;55.10;27.07;;;13.60;2201.60;;;;;;4994920;28;20427;-76
2021/01/17 08:53:18;;;;;;;48.50;24.83;;;13.60;2201.60;;;;;;4994584;28;20133;-76
2021/01/17 08:55:49;;;;;;;47.45;24.50;;;13.50;2201.60;;;;;;4995837;28;20030;-76
2021/01/17 08:58:36;;;;;;;61.63;30.03;;;13.50;2201.60;;;;;;4994634;28;20030;-76
2021/01/17 09:01:10;;;;;;;70.43;30.43;;;13.40;2201.60;;;;;;4984452;28;20140;-76
2021/01/17 09:03:41;;;;;;;54.77;28.20;;;13.30;2201.60;;;;;;4995008;28;20034;-75
2021/01/17 09:06:13;;;;;;;43.93;23.40;;;13.20;2201.60;;;;;;4995636;28;20030;-76
2021/01/17 09:08:48;;;;;;;42.53;23.60;;;13.20;2201.60;;;;;;4995720;28;20034;-76
2021/01/17 09:11:29;;;;;;;43.30;24.20;;;13.20;2201.60;;;;;;4995219;28;20414;-77
2021/01/17 09:14:12;;;;;;;48.93;26.37;;;13.10;2201.60;;;;;;4996069;28;20022;-76
2021/01/17 09:16:50;;;;;;;39.25;21.77;;;13.00;2201.60;;;;;;4995029;28;20023;-76
2021/01/17 09:19:18;;;;;;;37.50;21.63;;;13.10;2201.60;;;;;;4996041;28;20030;-78
2021/01/17 09:21:46;;;;;;;48.60;26.43;;;13.00;2201.60;;;;;;4995621;28;20055;-76
2021/01/17 09:24:18;;;;;;;49.97;24.63;;;13.00;2201.60;;;;;;4994226;28;20030;-77
2021/01/17 09:27:11;;;;;;;46.07;23.20;;;13.00;2201.60;;;;;;4994358;28;20054;-76
2021/01/17 09:29:41;;;;;;;31.90;17.27;;;13.00;2201.60;;;;;;4993408;28;20557;-76
2021/01/17 09:32:16;;;;;;;37.37;21.77;;;13.00;2201.60;;;;;;4996201;28;20061;-76
2021/01/17 09:34:46;;;;;;;35.80;20.60;;;13.00;2201.60;;;;;;4994843;28;20418;-77
2021/01/17 09:37:15;;;;;;;33.93;17.63;;;13.00;2201.60;;;;;;4995054;28;20514;-76
2021/01/17 09:39:46;;;;;;;46.40;21.50;;;13.20;2201.60;;;;;;4993563;28;20069;-75
2021/01/17 09:42:14;;;;;;;40.30;21.43;;;13.10;2201.60;;;;;;4995757;28;20034;-77
2021/01/17 09:44:41;;;;;;;43.87;23.17;;;13.10;2201.60;;;;;;4994403;28;20454;-76
2021/01/17 09:47:18;;;;;;;31.90;17.93;;;13.10;2201.60;;;;;;4996057;28;20029;-76
2021/01/17 09:49:45;;;;;;;43.73;22.00;;;13.50;2201.60;;;;;;4994533;28;20547;-76
2021/01/17 09:52:22;;;;;;;61.40;30.17;;;13.20;2201.60;;;;;;4993734;28;20496;-76
2021/01/17 09:54:50;;;;;;;42.77;21.83;;;13.10;2201.60;;;;;;4993361;28;20387;-76
2021/01/17 09:57:18;;;;;;;46.27;24.10;;;13.10;2201.60;;;;;;4995104;28;20027;-78
2021/01/17 09:59:45;;;;;;;66.63;31.43;;;13.10;2201.60;;;;;;4994612;28;20026;-76
2021/01/17 10:02:11;;;;;;;55.87;29.80;;;13.10;2201.60;;;;;;4995257;28;20054;-76
2021/01/17 10:04:38;;;;;;;56.57;30.10;;;13.00;2201.60;;;;;;4993603;28;20026;-78
2021/01/17 10:07:04;;;;;;;85.50;40.87;;;13.00;2201.60;;;;;;4994219;28;20062;-77
2021/01/17 10:09:30;;;;;;;51.97;25.53;;;13.00;2201.60;;;;;;4993348;28;20077;-76
2021/01/17 10:11:59;;;;;;;46.60;24.33;;;13.00;2201.60;;;;;;4993176;28;20061;-76
2021/01/17 10:14:28;;;;;;;51.13;27.10;;;12.90;2201.60;;;;;;4993264;28;20553;-77
2021/01/17 10:16:55;;;;;;;28.83;17.27;;;12.90;2201.60;;;;;;4993234;28;20430;-76
2021/01/17 10:19:29;;;;;;;34.13;20.33;;;12.90;2201.60;;;;;;4993066;28;20057;-76
2021/01/17 10:21:55;;;;;;;49.40;26.23;;;12.90;2201.60;;;;;;4994219;28;20472;-76
2021/01/17 10:24:23;;;;;;;73.80;37.67;;;0.00;2201.60;;;;;;4993162;28;20034;-76
2021/01/17 10:26:52;;;;;;;103.67;49.40;;;0.00;2201.60;;;;;;4994257;28;20106;-76
2021/01/17 10:29:23;;;;;;;94.70;44.63;;;0.10;2201.60;;;;;;4993328;28;20081;-77
2021/01/17 10:31:55;;;;;;;36.40;21.17;;;0.20;2201.60;;;;;;4993696;28;20034;-76
2021/01/17 10:34:22;;;;;;;47.93;26.83;;;0.20;2201.60;;;;;;4993365;28;20026;-76
2021/01/17 10:36:54;;;;;;;35.40;21.17;;;0.30;2201.60;;;;;;4993722;28;20505;-76
2021/01/17 10:39:20;;;;;;;38.80;22.13;;;0.30;2201.60;;;;;;4993762;28;20022;-79
2021/01/17 10:41:47;;;;;;;48.63;27.67;;;0.30;2201.60;;;;;;4994756;28;20077;-76
2021/01/17 10:44:24;;;;;;;52.97;29.53;;;0.40;2201.60;;;;;;4994810;28;20475;-76
2021/01/17 10:47:01;;;;;;;63.27;32.97;;;0.30;2201.60;;;;;;4993708;28;20041;-76
2021/01/17 10:49:32;;;;;;;42.87;25.17;;;0.30;2201.60;;;;;;4992875;28;20039;-76
2021/01/17 10:52:04;;;;;;;55.97;33.13;;;0.30;2201.60;;;;;;4994705;28;20066;-76
2021/01/17 10:54:34;;;;;;;40.93;23.80;;;0.30;2201.60;;;;;;4994407;28;20491;-76
2021/01/17 10:57:04;;;;;;;48.70;27.23;;;0.20;2201.60;;;;;;4995245;28;20391;-78
2021/01/17 10:59:31;;;;;;;32.83;18.53;;;0.20;2201.60;;;;;;4994301;28;20054;-76
2021/01/17 11:01:57;;;;;;;47.67;29.03;;;0.20;2201.60;;;;;;4993118;28;20026;-76
2021/01/17 11:04:23;;;;;;;42.33;24.80;;;0.30;2201.60;;;;;;4994101;28;20077;-78
2021/01/17 11:06:49;;;;;;;66.33;38.13;;;0.30;2201.60;;;;;;4994033;28;20054;-75
2021/01/17 11:09:17;;;;;;;70.27;36.80;;;0.30;2201.60;;;;;;4992822;28;20041;-76
2021/01/17 11:11:45;;;;;;;73.27;42.13;;;0.30;2201.60;;;;;;4996542;28;20025;-76
2021/01/17 11:14:11;;;;;;;46.80;23.80;;;0.20;2201.60;;;;;;4997903;28;20085;-76
2021/01/17 11:16:49;;;;;;;73.27;39.93;;;0.10;2201.60;;;;;;4996338;28;20109;-75
2021/01/17 11:19:15;;;;;;;31.87;18.73;;;0.00;2201.60;;;;;;4998024;28;20073;-76
2021/01/17 11:21:43;;;;;;;26.73;16.07;;;0.10;2201.60;;;;;;4998768;28;20026;-76
2021/01/17 11:24:10;;;;;;;73.03;35.90;;;0.20;2201.60;;;;;;4996915;28;20360;-79
2021/01/17 11:26:37;;;;;;;75.37;38.80;;;0.20;2201.60;;;;;;4996942;28;20089;-77
2021/01/17 11:29:06;;;;;;;75.97;33.90;;;0.20;2201.60;;;;;;4997210;28;20038;-76
2021/01/17 11:31:33;;;;;;;100.43;51.57;;;0.20;2201.60;;;;;;4997633;28;20018;-76
2021/01/17 11:34:11;;;;;;;71.77;41.33;;;0.20;2201.60;;;;;;4997640;28;20035;-76
2021/01/17 11:36:37;;;;;;;79.60;41.40;;;0.20;2201.60;;;;;;4996850;28;20114;-77
2021/01/17 11:39:03;;;;;;;67.63;36.80;;;0.20;2201.60;;;;;;4998238;28;20054;-76
2021/01/17 11:41:37;;;;;;;47.10;26.47;;;0.20;2201.60;;;;;;4998456;28;20109;-78
2021/01/17 11:44:17;;;;;;;37.63;19.67;;;0.30;2201.60;;;;;;4999803;28;20079;-77
2021/01/17 11:46:43;;;;;;;44.70;24.37;;;0.30;2201.60;;;;;;4997899;28;20066;-77
2021/01/17 11:49:29;;;;;;;45.67;26.03;;;0.40;2201.60;;;;;;4997689;28;20046;-78
2021/01/17 11:51:58;;;;;;;42.47;24.17;;;0.40;2201.60;;;;;;5010672;28;20042;-81
2021/01/17 11:54:32;;;;;;;55.97;27.83;;;0.40;2201.60;;;;;;5014013;28;20034;-82
2021/01/17 11:57:07;;;;;;;52.30;27.87;;;0.50;2201.60;;;;;;5014677;28;20030;-83
2021/01/17 11:59:41;;;;;;;36.23;19.60;;;0.50;2201.60;;;;;;5026011;28;20033;-81
2021/01/17 12:02:21;;;;;;;38.80;20.53;;;0.50;2201.60;;;;;;5033710;28;20093;-79
2021/01/17 12:05:01;;;;;;;41.23;24.53;;;0.50;2201.60;;;;;;5035845;28;20010;-82
2021/01/17 12:07:27;;;;;;;37.03;20.97;;;0.50;2201.60;;;;;;5033661;28;20030;-82
2021/01/17 12:10:14;;;;;;;25.70;16.00;;;51.30;2227.20;;;;;;5018393;28;20109;-81
2021/01/17 12:12:40;;;;;;;31.60;19.73;;;0.50;2201.60;;;;;;5019509;28;20033;-82
2021/01/17 12:15:10;;;;;;;33.60;18.77;;;0.50;2201.60;;;;;;5026555;28;20022;-82
2021/01/17 12:17:37;;;;;;;48.13;27.17;;;0.20;2201.60;;;;;;5021909;28;20037;-82
2021/01/17 12:20:04;;;;;;;33.67;19.30;;;0.50;2201.60;;;;;;5014208;28;20018;-83
2021/01/17 12:22:30;;;;;;;30.90;17.67;;;51.30;2227.20;;;;;;5012945;28;20050;-83
2021/01/17 12:25:02;;;;;;;37.10;19.70;;;0.40;2201.60;;;;;;5013413;28;20034;-82
2021/01/17 12:27:29;;;;;;;36.07;20.03;;;0.50;2201.60;;;;;;5014252;28;20042;-82